createdAt,value
2022-12-31T00:00:06.017Z,42.27
2022-12-31T00:01:05.938Z,40.44
2022-12-31T00:02:05.975Z,39.22
2022-12-31T00:03:06.054Z,38.10
2022-12-31T00:04:05.878Z,37.21
2022-12-31T00:05:05.910Z,36.69
2022-12-31T00:06:05.851Z,35.99
2022-12-31T00:07:05.847Z,35.68
2022-12-31T00:08:05.840Z,35.07
2022-12-31T00:09:05.817Z,34.77
2022-12-31T00:10:05.823Z,34.46
2022-12-31T00:11:05.786Z,34.26
2022-12-31T00:12:05.791Z,33.75
2022-12-31T00:13:05.771Z,33.65
2022-12-31T00:14:05.780Z,33.44
2022-12-31T00:15:05.733Z,33.44
2022-12-31T00:16:11.780Z,33.44
2022-12-31T00:17:06.732Z,33.34
2022-12-31T00:18:05.706Z,33.34
2022-12-31T00:19:05.703Z,33.44
2022-12-31T00:20:05.721Z,33.85
2022-12-31T00:21:05.654Z,33.24
2022-12-31T00:22:05.645Z,33.46
2022-12-31T00:23:05.649Z,32.95
2022-12-31T00:24:05.610Z,32.85
2022-12-31T00:25:05.607Z,32.75
2022-12-31T00:26:05.590Z,32.34
2022-12-31T00:27:05.564Z,32.24
2022-12-31T00:28:05.579Z,32.14
2022-12-31T00:29:05.548Z,32.24
2022-12-31T00:30:05.570Z,32.14
2022-12-31T00:31:05.570Z,31.93
2022-12-31T00:32:05.516Z,31.93
2022-12-31T00:33:05.508Z,31.83
2022-12-31T00:34:05.486Z,31.83
2022-12-31T00:35:05.495Z,31.73
2022-12-31T00:36:05.454Z,31.63
2022-12-31T00:37:05.440Z,31.73
2022-12-31T00:38:05.472Z,31.73
2022-12-31T00:39:05.407Z,31.83
2022-12-31T00:40:05.413Z,31.93
2022-12-31T00:41:05.383Z,32.14
2022-12-31T00:42:05.372Z,32.14
2022-12-31T00:43:05.367Z,31.93
2022-12-31T00:44:05.349Z,32.04
2022-12-31T00:45:05.328Z,32.14
2022-12-31T00:46:05.368Z,32.44
2022-12-31T00:47:05.300Z,32.95
2022-12-31T00:48:05.318Z,33.05
2022-12-31T00:49:05.288Z,33.56
2022-12-31T00:50:05.292Z,33.87
2022-12-31T00:51:05.262Z,34.48
2022-12-31T00:52:05.243Z,34.78
2022-12-31T00:53:05.225Z,34.97
2022-12-31T00:54:05.239Z,35.38
2022-12-31T00:55:05.191Z,35.68
2022-12-31T00:56:05.187Z,36.08
2022-12-31T00:57:05.175Z,36.60
2022-12-31T00:58:05.174Z,36.39
2022-12-31T00:59:05.144Z,37.21
2022-12-31T01:00:05.131Z,37.82
2022-12-31T01:01:05.226Z,38.32
2022-12-31T01:02:05.202Z,38.83
2022-12-31T01:03:05.263Z,38.83
2022-12-31T01:04:05.086Z,39.02
2022-12-31T01:05:05.072Z,39.53
2022-12-31T01:06:05.039Z,39.83
2022-12-31T01:07:05.031Z,40.54
2022-12-31T01:08:05.035Z,40.64
2022-12-31T01:09:05.037Z,41.15
2022-12-31T01:10:04.994Z,41.05
2022-12-31T01:11:04.985Z,41.15
2022-12-31T01:12:04.964Z,41.25
2022-12-31T01:13:04.983Z,41.76
2022-12-31T01:14:04.942Z,42.27
2022-12-31T01:15:04.921Z,42.27
2022-12-31T01:16:04.976Z,42.68
2022-12-31T01:17:04.909Z,42.35
2022-12-31T01:18:04.885Z,42.45
2022-12-31T01:19:04.906Z,43.16
2022-12-31T01:20:04.871Z,43.37
2022-12-31T01:21:04.841Z,43.57
2022-12-31T01:22:04.831Z,44.18
2022-12-31T01:23:04.820Z,44.38
2022-12-31T01:24:04.833Z,44.68
2022-12-31T01:25:04.795Z,44.89
2022-12-31T01:26:04.780Z,45.09
2022-12-31T01:27:04.775Z,45.20
2022-12-31T01:28:04.778Z,45.29
2022-12-31T01:29:04.742Z,45.20
2022-12-31T01:30:04.727Z,45.68
2022-12-31T01:31:04.740Z,45.68
2022-12-31T01:32:04.704Z,45.89
2022-12-31T01:33:04.710Z,46.29
2022-12-31T01:34:04.664Z,46.80
2022-12-31T01:35:04.655Z,46.90
2022-12-31T01:36:04.643Z,47.30
2022-12-31T01:37:04.643Z,47.61
2022-12-31T01:38:04.631Z,48.11
2022-12-31T01:39:04.605Z,48.22
2022-12-31T01:40:04.657Z,48.42
2022-12-31T01:41:04.582Z,48.83
2022-12-31T01:42:04.590Z,48.93
2022-12-31T01:43:04.557Z,48.93
2022-12-31T01:44:04.534Z,49.23
2022-12-31T01:45:04.532Z,48.72
2022-12-31T01:46:04.587Z,48.93
2022-12-31T01:47:04.524Z,48.83
2022-12-31T01:48:04.488Z,48.30
2022-12-31T01:49:04.476Z,49.01
2022-12-31T01:50:04.456Z,49.62
2022-12-31T01:51:04.457Z,50.23
2022-12-31T01:52:04.450Z,50.93
2022-12-31T01:53:04.423Z,51.62
2022-12-31T01:54:04.427Z,52.33
2022-12-31T01:55:04.396Z,53.25
2022-12-31T01:56:04.383Z,55.35
2022-12-31T01:57:04.395Z,56.67
2022-12-31T01:58:04.355Z,58.76
2022-12-31T01:59:04.338Z,59.17
2022-12-31T02:00:04.321Z,60.86
2022-12-31T02:01:04.401Z,61.47
2022-12-31T02:02:04.461Z,61.98
2022-12-31T02:03:04.338Z,61.47
2022-12-31T02:04:04.268Z,61.17
2022-12-31T02:05:04.270Z,62.38
2022-12-31T02:06:04.254Z,61.78
2022-12-31T02:07:04.286Z,63.07
2022-12-31T02:08:04.235Z,63.87
2022-12-31T02:09:04.202Z,63.07
2022-12-31T02:10:04.195Z,63.78
2022-12-31T02:11:04.180Z,63.78
2022-12-31T02:12:04.315Z,63.67
2022-12-31T02:13:04.150Z,63.78
2022-12-31T02:14:04.142Z,63.60
2022-12-31T02:15:04.124Z,64.11
2022-12-31T02:16:04.182Z,64.38
2022-12-31T02:17:04.123Z,64.99
2022-12-31T02:18:04.081Z,65.09
2022-12-31T02:19:04.078Z,65.50
2022-12-31T02:20:04.053Z,66.10
2022-12-31T02:21:04.042Z,64.99
2022-12-31T02:22:04.045Z,66.91
2022-12-31T02:23:04.033Z,67.22
2022-12-31T02:24:04.005Z,67.22
2022-12-31T02:25:03.997Z,67.11
2022-12-31T02:26:03.972Z,66.81
2022-12-31T02:27:03.986Z,66.91
2022-12-31T02:28:03.953Z,66.61
2022-12-31T02:29:03.942Z,66.50
2022-12-31T02:30:03.932Z,67.01
2022-12-31T02:31:03.936Z,67.32
2022-12-31T02:32:03.916Z,66.61
2022-12-31T02:33:03.891Z,66.50
2022-12-31T02:34:03.866Z,67.72
2022-12-31T02:35:03.857Z,67.32
2022-12-31T02:36:03.845Z,67.62
2022-12-31T02:37:03.846Z,67.72
2022-12-31T02:38:03.816Z,67.32
2022-12-31T02:39:03.804Z,68.33
2022-12-31T02:40:03.793Z,68.53
2022-12-31T02:41:03.778Z,69.04
2022-12-31T02:42:03.780Z,68.50
2022-12-31T02:43:03.771Z,67.62
2022-12-31T02:44:03.739Z,67.72
2022-12-31T02:45:03.725Z,68.80
2022-12-31T02:46:03.775Z,68.80
2022-12-31T02:47:03.721Z,68.84
2022-12-31T02:48:03.700Z,69.71
2022-12-31T02:49:03.671Z,70.52
2022-12-31T02:50:03.660Z,70.02
2022-12-31T02:51:03.659Z,70.52
2022-12-31T02:52:03.646Z,70.52
2022-12-31T02:53:03.623Z,70.62
2022-12-31T02:54:03.599Z,70.52
2022-12-31T02:55:03.596Z,70.32
2022-12-31T02:56:03.602Z,69.61
2022-12-31T02:57:03.580Z,69.81
2022-12-31T02:58:03.551Z,69.92
2022-12-31T02:59:03.542Z,69.81
2022-12-31T03:00:03.535Z,69.21
2022-12-31T03:01:03.581Z,69.92
2022-12-31T03:02:03.586Z,69.51
2022-12-31T03:03:03.506Z,70.62
2022-12-31T03:04:03.471Z,71.70
2022-12-31T03:05:03.507Z,71.60
2022-12-31T03:06:03.480Z,71.30
2022-12-31T03:07:03.452Z,71.70
2022-12-31T03:08:03.415Z,71.91
2022-12-31T03:09:03.402Z,71.40
2022-12-31T03:10:03.393Z,71.00
2022-12-31T03:11:03.377Z,70.79
2022-12-31T03:12:03.382Z,71.50
2022-12-31T03:13:03.358Z,71.70
2022-12-31T03:14:03.349Z,72.11
2022-12-31T03:15:03.323Z,71.40
2022-12-31T03:16:03.332Z,72.01
2022-12-31T03:17:03.330Z,72.31
2022-12-31T03:18:03.282Z,72.01
2022-12-31T03:19:03.280Z,71.60
2022-12-31T03:20:03.274Z,72.21
2022-12-31T03:21:03.268Z,72.72
2022-12-31T03:22:03.244Z,72.72
2022-12-31T03:23:03.226Z,72.81
2022-12-31T03:24:03.204Z,72.51
2022-12-31T03:25:03.221Z,72.81
2022-12-31T03:26:03.173Z,72.01
2022-12-31T03:27:03.179Z,72.31
2022-12-31T03:28:03.158Z,71.60
2022-12-31T03:29:03.139Z,71.40
2022-12-31T03:30:03.128Z,71.40
2022-12-31T03:31:03.184Z,71.30
2022-12-31T03:32:03.107Z,71.60
2022-12-31T03:33:03.088Z,70.89
2022-12-31T03:34:03.067Z,70.79
2022-12-31T03:35:03.057Z,71.00
2022-12-31T03:36:03.037Z,71.40
2022-12-31T03:37:03.051Z,71.60
2022-12-31T03:38:03.023Z,71.30
2022-12-31T03:39:03.010Z,70.69
2022-12-31T03:40:02.989Z,70.29
2022-12-31T03:41:02.985Z,70.09
2022-12-31T03:42:02.989Z,69.89
2022-12-31T03:43:02.956Z,69.68
2022-12-31T03:44:02.939Z,69.48
2022-12-31T03:45:02.930Z,68.87
2022-12-31T03:46:02.927Z,68.37
2022-12-31T03:47:02.900Z,67.86
2022-12-31T03:48:02.892Z,67.86
2022-12-31T03:49:02.879Z,67.66
2022-12-31T03:50:02.860Z,67.76
2022-12-31T03:51:02.840Z,67.18
2022-12-31T03:52:02.834Z,66.98
2022-12-31T03:53:02.848Z,66.88
2022-12-31T03:54:02.806Z,67.39
2022-12-31T03:55:02.797Z,67.29
2022-12-31T03:56:02.790Z,66.67
2022-12-31T03:57:02.765Z,66.38
2022-12-31T03:58:02.764Z,66.17
2022-12-31T03:59:02.735Z,66.07
2022-12-31T04:00:02.712Z,65.87
2022-12-31T04:01:02.829Z,65.77
2022-12-31T04:02:02.823Z,66.27
2022-12-31T04:03:02.757Z,66.38
2022-12-31T04:04:02.682Z,66.17
2022-12-31T04:05:02.652Z,66.47
2022-12-31T04:06:02.638Z,66.98
2022-12-31T04:07:02.635Z,66.98
2022-12-31T04:08:02.623Z,66.78
2022-12-31T04:09:02.604Z,66.47
2022-12-31T04:10:02.587Z,66.27
2022-12-31T04:11:02.584Z,66.58
2022-12-31T04:12:02.565Z,66.17
2022-12-31T04:13:02.575Z,66.17
2022-12-31T04:14:02.541Z,65.77
2022-12-31T04:15:02.521Z,64.76
2022-12-31T04:16:02.566Z,64.55
2022-12-31T04:17:02.498Z,65.47
2022-12-31T04:18:02.525Z,65.26
2022-12-31T04:19:02.469Z,65.16
2022-12-31T04:20:02.457Z,65.09
2022-12-31T04:21:02.446Z,64.38
2022-12-31T04:22:02.429Z,65.26
2022-12-31T04:23:02.443Z,65.29
2022-12-31T04:24:02.404Z,65.67
2022-12-31T04:25:02.388Z,65.59
2022-12-31T04:26:02.368Z,65.87
2022-12-31T04:27:07.454Z,66.71
2022-12-31T04:28:03.366Z,67.29
2022-12-31T04:29:02.351Z,68.30
2022-12-31T04:30:02.331Z,68.40
2022-12-31T04:31:02.312Z,68.90
2022-12-31T04:32:02.354Z,69.01
2022-12-31T04:33:02.301Z,69.78
2022-12-31T04:34:02.271Z,69.92
2022-12-31T04:35:02.263Z,69.61
2022-12-31T04:36:02.250Z,70.22
2022-12-31T04:37:02.241Z,70.18
2022-12-31T04:38:02.232Z,70.69
2022-12-31T04:39:02.211Z,70.79
2022-12-31T04:40:06.175Z,70.69
2022-12-31T04:41:02.172Z,70.39
2022-12-31T04:42:02.172Z,70.29
2022-12-31T04:43:02.157Z,71.40
2022-12-31T04:44:02.155Z,71.50
2022-12-31T04:45:02.130Z,71.60
2022-12-31T04:46:02.140Z,71.70
2022-12-31T04:47:02.140Z,71.30
2022-12-31T04:48:02.094Z,71.80
2022-12-31T04:49:02.076Z,72.41
2022-12-31T04:50:02.061Z,72.01
2022-12-31T04:51:02.050Z,72.01
2022-12-31T04:52:02.065Z,72.11
2022-12-31T04:53:02.023Z,71.60
2022-12-31T04:54:02.029Z,72.01
2022-12-31T04:55:02.008Z,73.12
2022-12-31T04:56:01.990Z,72.81
2022-12-31T04:57:02.005Z,73.99
2022-12-31T04:58:01.950Z,74.30
2022-12-31T04:59:01.944Z,74.10
2022-12-31T05:00:01.957Z,73.90
2022-12-31T05:01:01.965Z,74.50
2022-12-31T05:02:02.120Z,74.80
2022-12-31T05:03:01.906Z,75.21
2022-12-31T05:04:01.883Z,74.80
2022-12-31T05:05:01.871Z,74.80
2022-12-31T05:06:01.844Z,75.01
2022-12-31T05:07:01.865Z,75.01
2022-12-31T05:08:01.812Z,74.90
2022-12-31T05:09:01.821Z,74.80
2022-12-31T05:10:01.789Z,75.21
2022-12-31T05:11:01.776Z,75.21
2022-12-31T05:12:01.786Z,75.81
2022-12-31T05:13:01.756Z,75.71
2022-12-31T05:14:01.734Z,75.21
2022-12-31T05:15:01.742Z,75.21
2022-12-31T05:16:01.725Z,75.41
2022-12-31T05:17:01.743Z,75.51
2022-12-31T05:18:01.682Z,75.51
2022-12-31T05:19:01.668Z,75.01
2022-12-31T05:20:01.667Z,75.71
2022-12-31T05:21:01.640Z,75.92
2022-12-31T05:22:01.644Z,75.21
2022-12-31T05:23:01.618Z,75.41
2022-12-31T05:24:01.602Z,75.31
2022-12-31T05:25:01.597Z,75.51
2022-12-31T05:26:01.588Z,75.01
2022-12-31T05:27:01.588Z,75.10
2022-12-31T05:28:01.551Z,75.31
2022-12-31T05:29:01.538Z,75.51
2022-12-31T05:30:01.520Z,75.51
2022-12-31T05:31:01.579Z,75.61
2022-12-31T05:32:01.527Z,75.71
2022-12-31T05:33:01.485Z,76.02
2022-12-31T05:34:01.463Z,75.92
2022-12-31T05:35:01.455Z,75.92
2022-12-31T05:36:01.446Z,76.12
2022-12-31T05:37:01.433Z,76.62
2022-12-31T05:38:01.427Z,76.48
2022-12-31T05:39:01.414Z,76.48
2022-12-31T05:40:01.396Z,76.59
2022-12-31T05:41:01.370Z,76.22
2022-12-31T05:42:01.396Z,76.12
2022-12-31T05:43:01.342Z,75.92
2022-12-31T05:44:01.336Z,76.12
2022-12-31T05:45:01.331Z,75.92
2022-12-31T05:46:01.382Z,76.52
2022-12-31T05:47:01.320Z,76.39
2022-12-31T05:48:01.294Z,76.12
2022-12-31T05:49:01.305Z,76.02
2022-12-31T05:50:01.260Z,76.52
2022-12-31T05:51:01.240Z,76.39
2022-12-31T05:52:01.255Z,76.79
2022-12-31T05:53:01.231Z,76.48
2022-12-31T05:54:01.196Z,76.59
2022-12-31T05:55:01.189Z,76.48
2022-12-31T05:56:01.177Z,75.78
2022-12-31T05:57:01.199Z,75.57
2022-12-31T05:58:01.170Z,75.48
2022-12-31T05:59:01.131Z,75.57
2022-12-31T06:00:12.778Z,75.48
2022-12-31T06:01:01.869Z,75.48
2022-12-31T06:02:01.094Z,75.37
2022-12-31T06:03:01.223Z,75.07
2022-12-31T06:04:01.139Z,75.98
2022-12-31T06:05:01.056Z,76.28
2022-12-31T06:06:01.044Z,75.88
2022-12-31T06:07:01.022Z,75.68
2022-12-31T06:08:01.036Z,75.48
2022-12-31T06:09:01.001Z,75.27
2022-12-31T06:10:00.993Z,75.61
2022-12-31T06:11:00.972Z,75.57
2022-12-31T06:12:01.048Z,75.37
2022-12-31T06:13:00.993Z,75.88
2022-12-31T06:14:00.943Z,75.98
2022-12-31T06:15:00.919Z,75.98
2022-12-31T06:16:00.965Z,75.68
2022-12-31T06:17:00.885Z,76.08
2022-12-31T06:18:00.899Z,76.18
2022-12-31T06:19:00.864Z,76.39
2022-12-31T06:20:01.365Z,76.79
2022-12-31T06:21:00.840Z,76.59
2022-12-31T06:22:00.839Z,76.39
2022-12-31T06:23:00.838Z,76.18
2022-12-31T06:24:00.807Z,76.28
2022-12-31T06:25:00.786Z,75.98
2022-12-31T06:26:00.775Z,75.88
2022-12-31T06:27:00.757Z,76.28
2022-12-31T06:28:00.765Z,76.28
2022-12-31T06:29:00.725Z,75.78
2022-12-31T06:30:00.749Z,75.48
2022-12-31T06:31:00.764Z,75.68
2022-12-31T06:32:00.703Z,75.68
2022-12-31T06:33:00.707Z,75.78
2022-12-31T06:34:00.678Z,75.37
2022-12-31T06:35:00.654Z,75.92
2022-12-31T06:36:00.639Z,75.88
2022-12-31T06:37:00.662Z,76.02
2022-12-31T06:38:00.747Z,75.98
2022-12-31T06:39:00.588Z,76.48
2022-12-31T06:40:00.607Z,76.99
2022-12-31T06:41:00.559Z,77.29
2022-12-31T06:42:00.580Z,77.60
2022-12-31T06:43:00.667Z,77.60
2022-12-31T06:44:00.529Z,77.80
2022-12-31T06:45:00.538Z,77.70
2022-12-31T06:46:00.564Z,77.60
2022-12-31T06:47:00.508Z,77.50
2022-12-31T06:48:00.494Z,77.70
2022-12-31T06:49:00.464Z,77.19
2022-12-31T06:50:00.465Z,77.50
2022-12-31T06:51:00.430Z,77.60
2022-12-31T06:52:00.446Z,77.60
2022-12-31T06:53:00.402Z,77.50
2022-12-31T06:54:00.390Z,77.39
2022-12-31T06:55:00.382Z,77.80
2022-12-31T06:56:00.372Z,77.60
2022-12-31T06:57:00.381Z,77.39
2022-12-31T06:58:00.344Z,77.29
2022-12-31T06:59:00.325Z,77.39
2022-12-31T07:00:00.325Z,77.29
2022-12-31T07:01:00.352Z,76.89
2022-12-31T07:02:00.384Z,76.69
2022-12-31T07:03:00.307Z,77.09
2022-12-31T07:04:00.262Z,77.50
2022-12-31T07:05:00.260Z,76.79
2022-12-31T07:06:00.236Z,77.39
2022-12-31T07:07:00.229Z,77.50
2022-12-31T07:08:00.227Z,77.76
2022-12-31T07:09:00.198Z,77.60
2022-12-31T07:10:00.223Z,77.60
2022-12-31T07:11:00.167Z,77.46
2022-12-31T07:12:00.155Z,77.50
2022-12-31T07:13:00.151Z,77.19
2022-12-31T07:14:00.155Z,76.99
2022-12-31T07:15:00.109Z,77.09
2022-12-31T07:16:00.223Z,77.19
2022-12-31T07:17:00.110Z,77.29
2022-12-31T07:18:00.089Z,77.19
2022-12-31T07:19:00.058Z,76.79
2022-12-31T07:20:00.082Z,76.59
2022-12-31T07:21:00.037Z,76.39
2022-12-31T07:22:00.063Z,76.99
2022-12-31T07:23:00.006Z,76.89
2022-12-31T07:24:00.001Z,76.69
2022-12-31T07:24:59.968Z,76.59
2022-12-31T07:25:59.986Z,76.69
2022-12-31T07:26:59.967Z,76.59
2022-12-31T07:27:59.957Z,76.99
2022-12-31T07:28:59.928Z,76.99
2022-12-31T07:29:59.924Z,76.69
2022-12-31T07:30:59.926Z,76.79
2022-12-31T07:31:59.916Z,77.50
2022-12-31T07:32:59.882Z,77.70
2022-12-31T07:33:59.860Z,77.60
2022-12-31T07:34:59.853Z,77.80
2022-12-31T07:35:59.841Z,78.00
2022-12-31T07:36:59.811Z,78.00
2022-12-31T07:37:59.836Z,77.39
2022-12-31T07:38:59.806Z,77.60
2022-12-31T07:39:59.781Z,77.80
2022-12-31T07:41:02.673Z,78.20
2022-12-31T07:42:00.763Z,78.81
2022-12-31T07:42:59.752Z,78.88
2022-12-31T07:43:59.792Z,78.97
2022-12-31T07:44:59.709Z,78.88
2022-12-31T07:45:59.709Z,79.08
2022-12-31T07:46:59.728Z,79.08
2022-12-31T07:48:02.724Z,79.17
2022-12-31T07:48:59.670Z,79.28
2022-12-31T07:49:59.647Z,80.08
2022-12-31T07:50:59.624Z,80.08
2022-12-31T07:51:59.642Z,80.79
2022-12-31T07:52:59.607Z,80.49
2022-12-31T07:53:59.597Z,80.99
2022-12-31T07:54:59.580Z,81.30
2022-12-31T07:55:59.576Z,81.20
2022-12-31T07:56:59.591Z,81.50
2022-12-31T07:57:59.545Z,82.21
2022-12-31T07:58:59.518Z,82.17
2022-12-31T07:59:59.518Z,81.96
2022-12-31T08:00:59.603Z,82.31
2022-12-31T08:01:59.539Z,82.27
2022-12-31T08:02:59.529Z,83.07
2022-12-31T08:03:59.460Z,82.87
2022-12-31T08:04:59.447Z,82.57
2022-12-31T08:05:59.434Z,83.78
2022-12-31T08:06:59.411Z,83.78
2022-12-31T08:07:59.423Z,83.98
2022-12-31T08:08:59.398Z,83.98
2022-12-31T08:09:59.380Z,83.98
2022-12-31T08:10:59.361Z,83.68
2022-12-31T08:11:59.402Z,83.48
2022-12-31T08:12:59.348Z,83.38
2022-12-31T08:13:59.329Z,83.18
2022-12-31T08:14:59.318Z,83.48
2022-12-31T08:15:59.331Z,83.38
2022-12-31T08:16:59.283Z,82.98
2022-12-31T08:17:59.306Z,83.28
2022-12-31T08:18:59.253Z,82.78
2022-12-31T08:19:59.247Z,83.18
2022-12-31T08:20:59.229Z,83.07
2022-12-31T08:21:59.230Z,83.07
2022-12-31T08:22:59.202Z,82.98
2022-12-31T08:23:59.200Z,83.58
2022-12-31T08:24:59.178Z,83.28
2022-12-31T08:25:59.342Z,83.18
2022-12-31T08:26:59.162Z,83.18
2022-12-31T08:27:59.139Z,83.48
2022-12-31T08:28:59.123Z,83.18
2022-12-31T08:29:59.119Z,83.48
2022-12-31T08:30:59.105Z,83.68
2022-12-31T08:31:59.157Z,83.78
2022-12-31T08:32:59.068Z,83.98
2022-12-31T08:34:03.869Z,83.88
2022-12-31T08:35:00.041Z,83.88
2022-12-31T08:35:59.086Z,83.78
2022-12-31T08:36:59.024Z,84.09
2022-12-31T08:37:59.003Z,83.58
2022-12-31T08:38:58.989Z,83.48
2022-12-31T08:39:58.983Z,83.38
2022-12-31T08:40:58.955Z,83.78
2022-12-31T08:41:58.964Z,83.68
2022-12-31T08:42:58.926Z,83.58
2022-12-31T08:43:58.939Z,83.68
2022-12-31T08:44:58.924Z,83.38
2022-12-31T08:45:58.922Z,83.18
2022-12-31T08:46:58.904Z,83.58
2022-12-31T08:48:00.291Z,83.88
2022-12-31T08:48:58.859Z,83.98
2022-12-31T08:49:58.856Z,84.49
2022-12-31T08:50:58.826Z,84.39
2022-12-31T08:51:58.844Z,84.99
2022-12-31T08:52:58.797Z,84.95
2022-12-31T08:53:58.804Z,84.65
2022-12-31T08:54:58.775Z,84.15
2022-12-31T08:55:58.769Z,84.95
2022-12-31T08:56:58.768Z,84.65
2022-12-31T08:57:58.740Z,84.55
2022-12-31T08:58:58.731Z,84.05
2022-12-31T08:59:58.718Z,83.98
2022-12-31T09:00:58.786Z,84.39
2022-12-31T09:01:58.842Z,84.49
2022-12-31T09:02:58.670Z,84.59
2022-12-31T09:03:58.796Z,84.29
2022-12-31T09:04:58.655Z,84.59
2022-12-31T09:05:58.644Z,84.29
2022-12-31T09:06:58.641Z,84.55
2022-12-31T09:07:58.617Z,84.45
2022-12-31T09:08:58.596Z,84.19
2022-12-31T09:09:58.581Z,83.88
2022-12-31T09:10:58.567Z,84.49
2022-12-31T09:11:58.574Z,84.65
2022-12-31T09:12:58.543Z,84.45
2022-12-31T09:13:58.532Z,84.95
2022-12-31T09:14:58.512Z,84.55
2022-12-31T09:15:58.513Z,84.25
2022-12-31T09:16:58.542Z,85.16
2022-12-31T09:17:58.478Z,84.75
2022-12-31T09:18:58.454Z,84.95
2022-12-31T09:19:58.453Z,84.55
2022-12-31T09:20:58.456Z,84.85
2022-12-31T09:21:58.436Z,84.45
2022-12-31T09:22:58.411Z,84.85
2022-12-31T09:23:58.404Z,84.45
2022-12-31T09:24:58.384Z,84.45
2022-12-31T09:25:58.400Z,84.35
2022-12-31T09:26:58.355Z,84.65
2022-12-31T09:27:58.345Z,84.05
2022-12-31T09:28:58.344Z,84.25
2022-12-31T09:29:58.328Z,84.45
2022-12-31T09:30:58.330Z,84.65
2022-12-31T09:31:58.326Z,84.35
2022-12-31T09:33:01.160Z,84.15
2022-12-31T09:33:58.269Z,84.35
2022-12-31T09:34:58.260Z,84.35
2022-12-31T09:35:58.262Z,84.15
2022-12-31T09:36:58.227Z,84.55
2022-12-31T09:37:58.206Z,84.25
2022-12-31T09:38:58.203Z,83.84
2022-12-31T09:39:58.186Z,84.25
2022-12-31T09:40:58.200Z,84.35
2022-12-31T09:41:58.160Z,84.35
2022-12-31T09:42:58.149Z,84.25
2022-12-31T09:44:01.144Z,83.95
2022-12-31T09:44:58.137Z,84.15
2022-12-31T09:45:58.158Z,84.75
2022-12-31T09:46:58.095Z,84.55
2022-12-31T09:47:58.091Z,84.35
2022-12-31T09:48:58.071Z,84.75
2022-12-31T09:49:58.067Z,85.86
2022-12-31T09:50:58.060Z,85.92
2022-12-31T09:51:58.032Z,85.52
2022-12-31T09:52:58.018Z,85.52
2022-12-31T09:53:58.001Z,85.11
2022-12-31T09:54:57.991Z,85.16
2022-12-31T09:55:57.991Z,85.25
2022-12-31T09:56:59.371Z,85.05
2022-12-31T09:57:57.950Z,85.46
2022-12-31T09:58:57.944Z,84.95
2022-12-31T09:59:57.924Z,85.42
2022-12-31T10:00:58.030Z,85.36
2022-12-31T10:01:58.051Z,85.62
2022-12-31T10:02:57.971Z,85.52
2022-12-31T10:03:57.876Z,86.22
2022-12-31T10:04:57.870Z,86.22
2022-12-31T10:05:57.865Z,86.53
2022-12-31T10:06:57.834Z,86.83
2022-12-31T10:07:57.815Z,86.02
2022-12-31T10:08:57.818Z,86.22
2022-12-31T10:09:57.799Z,86.53
2022-12-31T10:10:57.813Z,86.83
2022-12-31T10:11:57.766Z,86.43
2022-12-31T10:12:57.755Z,86.43
2022-12-31T10:13:57.750Z,87.13
2022-12-31T10:14:57.735Z,86.73
2022-12-31T10:15:57.735Z,86.83
2022-12-31T10:16:57.712Z,87.23
2022-12-31T10:17:57.690Z,87.23
2022-12-31T10:18:57.676Z,87.29
2022-12-31T10:19:57.663Z,87.34
2022-12-31T10:20:57.668Z,87.13
2022-12-31T10:21:57.635Z,86.83
2022-12-31T10:22:57.623Z,87.09
2022-12-31T10:23:57.617Z,87.54
2022-12-31T10:24:57.600Z,86.93
2022-12-31T10:25:57.597Z,86.93
2022-12-31T10:26:57.573Z,86.93
2022-12-31T10:27:57.552Z,87.74
2022-12-31T10:28:57.554Z,87.23
2022-12-31T10:29:57.521Z,87.63
2022-12-31T10:30:57.588Z,87.54
2022-12-31T10:31:57.498Z,87.84
2022-12-31T10:32:57.494Z,87.60
2022-12-31T10:33:57.462Z,87.63
2022-12-31T10:34:57.463Z,87.43
2022-12-31T10:35:57.469Z,87.63
2022-12-31T10:36:57.440Z,87.40
2022-12-31T10:37:57.412Z,87.60
2022-12-31T10:38:57.402Z,87.34
2022-12-31T10:39:57.391Z,87.43
2022-12-31T10:40:57.413Z,87.34
2022-12-31T10:41:57.367Z,87.70
2022-12-31T10:42:57.351Z,87.70
2022-12-31T10:43:57.333Z,88.20
2022-12-31T10:44:57.334Z,88.10
2022-12-31T10:45:57.342Z,88.20
2022-12-31T10:46:57.316Z,88.10
2022-12-31T10:47:57.282Z,87.80
2022-12-31T10:48:57.263Z,88.10
2022-12-31T10:49:57.263Z,87.70
2022-12-31T10:50:57.260Z,87.80
2022-12-31T10:51:57.226Z,88.60
2022-12-31T10:52:57.253Z,88.90
2022-12-31T10:53:57.235Z,88.40
2022-12-31T10:54:57.222Z,88.70
2022-12-31T10:55:57.210Z,89.11
2022-12-31T10:56:57.182Z,88.76
2022-12-31T10:58:02.026Z,88.86
2022-12-31T10:58:58.144Z,89.26
2022-12-31T10:59:57.127Z,89.26
2022-12-31T11:00:57.188Z,89.57
2022-12-31T11:01:57.220Z,89.37
2022-12-31T11:02:57.213Z,89.67
2022-12-31T11:03:57.185Z,89.57
2022-12-31T11:04:57.087Z,89.37
2022-12-31T11:05:57.068Z,89.37
2022-12-31T11:06:57.030Z,89.17
2022-12-31T11:07:57.009Z,89.17
2022-12-31T11:08:57.016Z,89.37
2022-12-31T11:09:57.015Z,88.96
2022-12-31T11:10:57.006Z,89.17
2022-12-31T11:11:56.956Z,89.26
2022-12-31T11:12:56.960Z,89.17
2022-12-31T11:13:56.934Z,88.66
2022-12-31T11:14:56.934Z,89.17
2022-12-31T11:15:56.948Z,89.26
2022-12-31T11:16:56.907Z,89.17
2022-12-31T11:17:56.881Z,89.47
2022-12-31T11:18:56.884Z,89.47
2022-12-31T11:19:56.865Z,89.06
2022-12-31T11:20:56.866Z,88.96
2022-12-31T11:21:56.821Z,89.06
2022-12-31T11:22:56.817Z,89.26
2022-12-31T11:23:56.805Z,89.26
2022-12-31T11:24:56.793Z,89.01
2022-12-31T11:25:56.781Z,89.21
2022-12-31T11:26:56.764Z,89.01
2022-12-31T11:27:56.744Z,88.86
2022-12-31T11:28:56.735Z,89.41
2022-12-31T11:29:56.718Z,88.96
2022-12-31T11:30:56.745Z,88.86
2022-12-31T11:31:56.697Z,89.01
2022-12-31T11:32:56.699Z,88.70
2022-12-31T11:33:56.676Z,89.17
2022-12-31T11:34:56.668Z,88.60
2022-12-31T11:35:56.655Z,89.11
2022-12-31T11:36:56.625Z,88.81
2022-12-31T11:37:56.605Z,89.31
2022-12-31T11:38:56.595Z,89.21
2022-12-31T11:39:56.589Z,89.11
2022-12-31T11:40:56.591Z,89.21
2022-12-31T11:41:56.559Z,89.11
2022-12-31T11:42:56.559Z,88.50
2022-12-31T11:43:56.530Z,89.01
2022-12-31T11:44:56.529Z,89.21
2022-12-31T11:45:56.516Z,89.31
2022-12-31T11:46:56.514Z,88.70
2022-12-31T11:48:29.188Z,88.90
2022-12-31T11:48:57.469Z,88.70
2022-12-31T11:49:56.495Z,88.90
2022-12-31T11:50:56.480Z,88.60
2022-12-31T11:51:56.432Z,88.90
2022-12-31T11:52:56.409Z,89.21
2022-12-31T11:53:56.401Z,89.21
2022-12-31T11:54:56.391Z,89.11
2022-12-31T11:55:56.388Z,88.60
2022-12-31T11:56:56.367Z,88.60
2022-12-31T11:57:56.350Z,89.01
2022-12-31T11:58:56.341Z,88.60
2022-12-31T11:59:56.329Z,88.81
2022-12-31T12:02:08.828Z,88.81
2022-12-31T12:03:06.151Z,89.01
2022-12-31T12:04:06.120Z,89.01
2022-12-31T12:05:10.608Z,89.31
2022-12-31T12:06:07.068Z,89.01
2022-12-31T12:07:06.064Z,89.01
2022-12-31T12:08:06.030Z,89.31
2022-12-31T12:09:06.019Z,89.31
2022-12-31T12:10:06.008Z,89.71
2022-12-31T12:11:06.010Z,89.81
2022-12-31T12:12:05.989Z,90.01
2022-12-31T12:13:05.981Z,90.11
2022-12-31T12:14:05.949Z,89.81
2022-12-31T12:15:05.941Z,89.71
2022-12-31T12:16:06.089Z,89.71
2022-12-31T12:17:05.949Z,89.81
2022-12-31T12:18:05.920Z,89.81
2022-12-31T12:19:05.897Z,89.71
2022-12-31T12:20:05.875Z,89.91
2022-12-31T12:21:05.885Z,90.11
2022-12-31T12:22:05.850Z,90.42
2022-12-31T12:23:05.836Z,90.42
2022-12-31T12:24:05.819Z,89.81
2022-12-31T12:25:05.808Z,89.61
2022-12-31T12:26:05.815Z,89.11
2022-12-31T12:27:05.772Z,89.51
2022-12-31T12:28:05.770Z,89.41
2022-12-31T12:29:05.743Z,89.35
2022-12-31T12:30:05.756Z,89.21
2022-12-31T12:31:05.799Z,89.55
2022-12-31T12:32:05.720Z,89.61
2022-12-31T12:33:05.694Z,89.51
2022-12-31T12:34:05.693Z,88.81
2022-12-31T12:35:05.674Z,88.85
2022-12-31T12:36:05.682Z,88.45
2022-12-31T12:37:05.651Z,88.54
2022-12-31T12:38:05.655Z,88.45
2022-12-31T12:39:05.623Z,88.85
2022-12-31T12:40:05.617Z,88.10
2022-12-31T12:41:05.609Z,88.45
2022-12-31T12:42:05.586Z,88.70
2022-12-31T12:43:05.570Z,88.54
2022-12-31T12:44:05.562Z,88.50
2022-12-31T12:45:05.556Z,88.50
2022-12-31T12:46:05.546Z,88.60
2022-12-31T12:47:05.577Z,89.11
2022-12-31T12:48:05.511Z,88.81
2022-12-31T12:49:05.499Z,88.70
2022-12-31T12:50:05.477Z,89.11
2022-12-31T12:51:05.487Z,88.50
2022-12-31T12:52:05.447Z,89.41
2022-12-31T12:53:05.442Z,90.11